createdAt,value
2019-04-28T07:25:30.583Z,29.22
2019-04-28T07:26:35.857Z,30.16
2019-04-28T07:27:40.606Z,31.18
2019-04-28T07:28:49.775Z,32.96
2019-04-28T07:29:54.465Z,32.96
2019-04-28T07:30:59.731Z,33.50
2019-04-28T07:32:04.589Z,33.18
2019-04-28T07:33:09.564Z,34.52
2019-04-28T07:34:14.534Z,34.08
2019-04-28T07:35:19.579Z,33.75
2019-04-28T07:36:24.722Z,35.25
2019-04-28T07:37:30.249Z,36.95
2019-04-28T07:38:35.223Z,38.17
2019-04-28T07:39:41.418Z,36.56
2019-04-28T07:40:46.470Z,34.96
2019-04-28T07:41:52.043Z,33.25
2019-04-28T07:42:57.048Z,30.78
2019-04-28T07:44:02.016Z,29.52
2019-04-28T07:45:06.827Z,29.64
2019-04-28T07:46:11.893Z,29.06
2019-04-28T07:47:16.746Z,28.94
2019-04-28T07:48:21.841Z,28.40
2019-04-28T07:49:27.107Z,27.67
2019-04-28T07:50:32.108Z,27.86
2019-04-28T07:51:52.006Z,27.01
2019-04-28T07:53:05.859Z,26.45
2019-04-28T07:54:11.850Z,26.76
2019-04-28T07:55:16.671Z,27.13
2019-04-28T07:56:22.048Z,28.26
2019-04-28T07:57:27.337Z,28.79
2019-04-28T07:58:32.607Z,30.01
2019-04-28T07:59:37.866Z,31.83
2019-04-28T08:00:42.834Z,31.86
2019-04-28T08:01:47.894Z,29.73
2019-04-28T08:02:52.873Z,29.09
2019-04-28T08:03:57.843Z,30.47
2019-04-28T08:05:02.571Z,29.89
2019-04-28T08:06:07.856Z,29.05
2019-04-28T08:07:12.832Z,27.90
2019-04-28T08:08:18.392Z,28.73
2019-04-28T08:09:23.803Z,28.35
2019-04-28T08:10:28.902Z,28.26
2019-04-28T08:11:33.923Z,28.07
2019-04-28T08:12:38.730Z,28.01
2019-04-28T08:13:43.997Z,26.51
2019-04-28T08:14:49.306Z,25.80
2019-04-28T08:15:54.037Z,26.54
2019-04-28T08:16:58.775Z,27.06
2019-04-28T08:18:03.798Z,27.68
2019-04-28T08:19:09.131Z,27.76
2019-04-28T08:20:14.046Z,28.94
2019-04-28T08:21:18.734Z,27.98
2019-04-28T08:22:23.870Z,27.87
2019-04-28T08:23:28.343Z,27.39
2019-04-28T08:24:33.617Z,27.99
2019-04-28T08:25:38.914Z,34.28
2019-04-28T08:26:43.364Z,29.56
2019-04-28T08:27:48.611Z,29.49
2019-04-28T08:28:53.620Z,28.28
2019-04-28T08:29:59.029Z,28.33
2019-04-28T08:31:05.459Z,28.27
2019-04-28T08:32:18.298Z,27.90
2019-04-28T08:33:34.742Z,30.64
2019-04-28T08:34:39.450Z,30.35
2019-04-28T08:35:43.948Z,29.76
2019-04-28T08:36:48.573Z,29.01
2019-04-28T08:37:53.448Z,28.34
2019-04-28T08:38:58.151Z,28.35
2019-04-28T08:40:03.456Z,28.06
2019-04-28T08:41:08.405Z,27.47
2019-04-28T08:42:13.482Z,27.06
2019-04-28T08:43:18.835Z,27.45
2019-04-28T08:44:23.835Z,27.95
2019-04-28T08:45:29.117Z,29.09
2019-04-28T08:46:33.829Z,29.64
2019-04-28T08:47:39.130Z,30.03
2019-04-28T08:48:44.375Z,35.81
2019-04-28T08:49:49.069Z,37.68
2019-04-28T08:50:54.398Z,36.20
2019-04-28T08:51:59.092Z,37.57
2019-04-28T08:53:03.865Z,39.40
2019-04-28T08:54:08.345Z,40.15
2019-04-28T08:55:13.097Z,40.99
2019-04-28T08:56:18.072Z,41.32
2019-04-28T08:57:23.042Z,42.05
2019-04-28T08:58:28.610Z,43.93
2019-04-28T08:59:33.674Z,43.35
2019-04-28T09:00:38.638Z,45.17
2019-04-28T09:01:43.611Z,42.65
2019-04-28T09:02:48.112Z,38.63
2019-04-28T09:03:52.760Z,35.93
2019-04-28T09:04:57.725Z,35.31
2019-04-28T09:06:02.474Z,31.68
2019-04-28T09:07:07.733Z,30.46
2019-04-28T09:08:12.445Z,30.68
2019-04-28T09:09:18.161Z,30.79
2019-04-28T09:10:23.121Z,34.10
2019-04-28T09:11:27.723Z,37.64
2019-04-28T09:12:32.441Z,38.02
2019-04-28T09:13:37.924Z,40.59
2019-04-28T09:14:43.231Z,41.57
2019-04-28T09:15:48.787Z,41.68
2019-04-28T09:16:54.072Z,36.72
2019-04-28T09:17:59.358Z,34.98
2019-04-28T09:19:04.228Z,34.67
2019-04-28T10:37:39.241Z,29.53
2019-04-28T10:38:45.254Z,29.50
2019-04-28T10:39:56.924Z,29.59
2019-04-28T10:41:08.999Z,29.44
2019-04-28T10:42:13.759Z,29.36
2019-04-28T10:43:18.720Z,29.36
2019-04-28T10:44:23.746Z,29.87
2019-04-28T10:45:30.355Z,29.87
2019-04-28T10:46:35.631Z,29.03
2019-04-28T10:47:40.880Z,28.83
2019-04-28T10:48:45.575Z,29.35
2019-04-28T10:49:50.551Z,29.90
2019-04-28T10:50:55.524Z,29.47
2019-04-28T10:52:00.056Z,32.61
2019-04-28T10:53:05.056Z,36.77
2019-04-28T10:54:09.800Z,39.06
2019-04-28T10:55:14.820Z,38.01
2019-04-28T10:56:20.088Z,40.37
2019-04-28T10:57:25.091Z,42.32
2019-04-28T10:58:30.504Z,40.64
2019-04-28T10:59:35.794Z,41.92
2019-04-28T11:00:41.287Z,40.47
2019-04-28T11:01:45.974Z,40.27
2019-04-28T11:02:50.664Z,41.00
2019-04-28T11:03:59.502Z,41.51
2019-04-28T11:05:17.483Z,41.37
2019-04-28T11:06:22.496Z,44.81
2019-04-28T11:07:27.453Z,40.76
2019-04-28T11:08:48.763Z,40.95
2019-04-28T11:10:09.044Z,38.93
2019-04-28T11:11:19.566Z,37.76
2019-04-28T11:12:26.904Z,37.65
2019-04-28T11:13:32.634Z,37.79
2019-04-28T11:14:37.743Z,37.01
2019-04-28T11:15:42.409Z,38.30
2019-04-28T11:16:47.400Z,38.32
2019-04-28T11:17:52.374Z,38.81
2019-04-28T11:18:56.880Z,38.04
2019-04-28T11:20:01.344Z,36.00
2019-04-28T11:21:06.105Z,35.16
2019-04-28T11:22:11.019Z,34.55
2019-04-28T11:23:16.552Z,34.53
2019-04-28T11:24:21.886Z,34.46
2019-04-28T11:25:27.629Z,34.11
2019-04-28T11:26:32.335Z,33.75
2019-04-28T11:27:37.024Z,33.43
2019-04-28T11:28:41.982Z,31.89
2019-04-28T11:29:47.431Z,31.63
2019-04-28T11:30:52.113Z,31.30
2019-04-28T11:31:57.100Z,31.15
2019-04-28T11:33:12.591Z,30.88
2019-04-28T11:34:26.257Z,31.64
2019-04-28T11:35:32.052Z,39.98
2019-04-28T11:36:36.484Z,42.07
2019-04-28T11:37:43.799Z,42.63
2019-04-28T11:38:48.533Z,42.99
2019-04-28T11:39:53.626Z,44.36
2019-04-28T11:40:58.674Z,45.71
2019-04-28T11:42:03.743Z,46.43
2019-04-28T11:43:15.026Z,44.87
2019-04-28T11:44:20.281Z,43.81
2019-04-28T11:45:26.686Z,42.68
2019-04-28T11:46:31.747Z,44.97
2019-04-28T11:47:36.510Z,48.24
2019-04-28T11:48:41.590Z,45.86
2019-04-28T11:49:47.050Z,42.20
2019-04-28T11:50:52.025Z,40.79
2019-04-28T11:51:57.023Z,38.52
2019-04-28T11:53:01.467Z,36.62
2019-04-28T11:54:06.109Z,36.27
2019-04-28T11:55:11.559Z,35.83
2019-04-28T11:56:16.279Z,35.12
2019-04-28T11:57:20.989Z,31.62
2019-04-28T11:58:25.761Z,33.09
2019-04-28T11:59:30.538Z,32.91
2019-04-28T12:00:36.132Z,33.32
2019-04-28T12:01:41.107Z,32.89
2019-04-28T12:02:45.811Z,32.83
2019-04-28T12:03:55.024Z,33.14
2019-04-28T12:05:00.535Z,32.82
2019-04-28T12:06:07.951Z,32.85
2019-04-28T12:07:13.157Z,32.83
2019-04-28T12:08:17.615Z,32.69
2019-04-28T12:09:41.241Z,33.06
2019-04-28T12:11:14.404Z,35.83
2019-04-28T12:12:37.113Z,34.70
2019-04-28T12:13:51.387Z,37.37
2019-04-28T12:15:03.548Z,36.89
2019-04-28T12:16:17.554Z,36.15
2019-04-28T12:17:41.402Z,34.11
2019-04-28T12:19:05.517Z,31.16
2019-04-28T12:20:14.477Z,31.26
2019-04-28T12:21:19.780Z,29.59
2019-04-28T12:22:24.818Z,30.08
2019-04-28T12:23:32.246Z,30.71
2019-04-28T12:24:37.416Z,30.84
2019-04-28T12:25:43.970Z,29.60
2019-04-28T12:26:48.996Z,30.97
2019-04-28T12:27:54.535Z,30.43
2019-04-28T12:29:00.921Z,31.18
2019-04-28T12:30:06.536Z,31.02
2019-04-28T12:31:11.259Z,30.40
2019-04-28T12:32:15.759Z,30.48
2019-04-28T12:33:20.717Z,30.45
2019-04-28T12:34:27.374Z,30.99
2019-04-28T12:35:32.549Z,30.91
2019-04-28T12:36:37.401Z,29.92
2019-04-28T12:37:42.387Z,30.37
2019-04-28T12:38:47.520Z,31.22
2019-04-28T12:39:52.111Z,31.40
2019-04-28T12:40:59.950Z,30.05
2019-04-28T12:42:05.082Z,28.57
2019-04-28T12:43:10.445Z,29.21
2019-04-28T12:44:15.065Z,30.74
2019-04-28T12:45:20.104Z,30.29
2019-04-28T12:46:27.643Z,29.40
2019-04-28T12:47:32.187Z,28.01
2019-04-28T12:48:37.438Z,28.80
2019-04-28T12:49:53.696Z,28.42
2019-04-28T12:50:58.390Z,28.57
2019-04-28T12:52:03.356Z,28.84
2019-04-28T12:53:08.142Z,29.03
2019-04-28T12:54:14.904Z,28.56
2019-04-28T12:55:19.423Z,29.07
2019-04-28T12:56:24.371Z,29.85
2019-04-28T12:57:29.237Z,29.40
2019-04-28T12:58:34.116Z,29.99
2019-04-28T12:59:44.274Z,29.32
2019-04-28T13:01:11.763Z,28.95
2019-04-28T13:02:35.597Z,29.07
2019-04-28T13:03:59.731Z,29.07
2019-04-28T13:05:08.631Z,28.94
2019-04-28T13:06:15.548Z,28.83
2019-04-28T13:07:20.267Z,28.83
2019-04-28T13:08:25.240Z,28.83
2019-04-28T13:09:30.484Z,29.44
2019-04-28T13:10:35.432Z,29.37
2019-04-28T13:11:40.690Z,29.37
2019-04-28T13:12:45.626Z,29.28
2019-04-28T13:13:50.859Z,28.87
2019-04-28T13:14:55.764Z,29.01
2019-04-28T13:16:00.517Z,28.75
2019-04-28T13:17:05.642Z,28.17
2019-04-28T13:18:10.290Z,28.20
2019-04-28T13:19:15.690Z,28.06
2019-04-28T13:20:20.372Z,28.46
2019-04-28T13:21:25.910Z,29.20
2019-04-28T13:22:30.583Z,28.95
2019-04-28T13:23:35.869Z,28.21
2019-04-28T13:24:40.643Z,28.94
2019-04-28T13:25:45.695Z,28.37
2019-04-28T13:26:52.256Z,28.25
2019-04-28T13:27:58.317Z,28.58
2019-04-28T13:29:03.297Z,29.04
2019-04-28T13:30:08.426Z,28.59
2019-04-28T13:31:13.133Z,28.77
2019-04-28T13:32:17.895Z,28.93
2019-04-28T13:33:22.946Z,28.67
2019-04-28T13:34:28.699Z,28.49
2019-04-28T13:35:33.669Z,28.08
2019-04-28T13:36:38.388Z,28.31
2019-04-28T13:37:43.359Z,28.72
2019-04-28T13:38:48.075Z,28.65
2019-04-28T13:39:56.848Z,28.79
2019-04-28T13:41:01.581Z,28.50
2019-04-28T13:42:06.198Z,28.01
2019-04-28T13:43:11.463Z,28.19
2019-04-28T13:44:19.831Z,27.86
2019-04-28T13:45:25.080Z,28.50
2019-04-28T13:46:30.051Z,28.82
2019-04-28T13:47:35.266Z,28.10
2019-04-28T13:48:40.008Z,28.68
2019-04-28T13:49:53.076Z,27.85
2019-04-28T13:50:57.870Z,28.95
2019-04-28T13:52:02.568Z,28.79
2019-04-28T13:53:08.143Z,28.20
2019-04-28T13:54:14.541Z,29.10
2019-04-28T13:55:37.695Z,28.98
2019-04-28T13:56:42.716Z,29.15
2019-04-28T13:57:47.689Z,29.86
2019-04-28T13:58:58.482Z,30.10
2019-04-28T14:00:05.198Z,29.86
2019-04-28T14:01:28.781Z,29.77
2019-04-28T14:02:43.929Z,29.60
2019-04-28T14:04:06.201Z,29.94
2019-04-28T14:05:35.770Z,29.39
2019-04-28T14:06:43.828Z,29.91
2019-04-28T14:07:48.787Z,29.98
2019-04-28T14:08:53.506Z,29.71
2019-04-28T14:09:58.755Z,29.73
2019-04-28T14:11:03.483Z,29.61
2019-04-28T14:12:08.539Z,29.91
2019-04-28T14:13:13.254Z,29.46
2019-04-28T14:14:18.211Z,29.95
2019-04-28T14:15:22.943Z,29.76
2019-04-28T14:16:27.928Z,29.55
2019-04-28T14:17:32.387Z,29.91
2019-04-28T14:18:37.392Z,29.69
2019-04-28T14:19:42.149Z,30.29
2019-04-28T14:20:46.897Z,29.72
2019-04-28T14:21:51.605Z,29.64
2019-04-28T14:22:56.857Z,29.32
2019-04-28T14:24:01.579Z,29.92
2019-04-28T14:25:07.083Z,29.14
2019-04-28T14:26:12.026Z,28.99
2019-04-28T14:27:17.274Z,29.30
2019-04-28T14:28:23.927Z,28.26
2019-04-28T14:29:28.903Z,28.47
2019-04-28T14:30:33.668Z,28.65
2019-04-28T14:31:38.677Z,29.52
2019-04-28T14:32:43.627Z,30.18
2019-04-28T14:33:48.863Z,30.11
2019-04-28T14:34:54.436Z,28.19
2019-04-28T14:35:59.399Z,28.87
2019-04-28T14:37:04.236Z,29.73
2019-04-28T14:38:09.442Z,30.17
2019-04-28T14:39:14.746Z,28.27
2019-04-28T14:40:19.646Z,29.46
2019-04-28T14:41:25.221Z,29.95
2019-04-28T14:42:29.983Z,28.78
2019-04-28T14:43:34.980Z,29.45
2019-04-28T14:44:39.494Z,28.45
2019-04-28T14:45:44.417Z,29.43
2019-04-28T14:46:49.427Z,29.54
2019-04-28T14:47:54.711Z,28.88
2019-04-28T14:48:59.439Z,28.59
2019-04-28T14:50:04.135Z,29.10
2019-04-28T14:51:08.553Z,28.08
2019-04-28T14:52:13.801Z,29.31
2019-04-28T14:53:18.741Z,29.16
2019-04-28T14:54:24.161Z,30.04
2019-04-28T14:55:29.286Z,29.96
2019-04-28T14:56:33.685Z,30.59
2019-04-28T14:57:38.655Z,28.80
2019-04-28T14:58:43.402Z,28.75
2019-04-28T14:59:48.240Z,29.54
2019-04-28T15:00:58.538Z,29.54
2019-04-28T15:02:28.886Z,28.35
2019-04-28T15:03:34.790Z,28.60
2019-04-28T15:05:07.537Z,28.60
2019-04-28T15:06:26.506Z,28.20
2019-04-28T15:07:49.156Z,28.20
2019-04-28T15:09:05.026Z,28.74
2019-04-28T15:10:27.450Z,28.44
2019-04-28T15:11:41.492Z,27.48
2019-04-28T15:12:46.557Z,27.18
2019-04-28T15:13:51.567Z,27.80
2019-04-28T15:14:56.599Z,27.40
2019-04-28T15:16:01.379Z,28.50
2019-04-28T15:17:06.594Z,25.92
2019-04-28T15:18:11.481Z,25.92
2019-04-28T15:19:17.844Z,27.61
2019-04-28T15:20:23.027Z,27.56
2019-04-28T15:21:27.688Z,26.87
2019-04-28T15:22:32.459Z,27.28
2019-04-28T15:23:37.443Z,26.80
2019-04-28T15:24:42.443Z,27.03
2019-04-28T15:25:47.435Z,26.68
2019-04-28T15:26:52.110Z,26.45
2019-04-28T15:27:57.412Z,26.93
2019-04-28T15:29:02.651Z,25.59
2019-04-28T15:30:07.385Z,27.87
2019-04-28T15:31:12.336Z,28.35
2019-04-28T15:32:17.591Z,27.96
2019-04-28T15:33:22.113Z,27.68
2019-04-28T15:34:27.435Z,27.57
2019-04-28T15:35:32.531Z,27.10
2019-04-28T15:36:37.598Z,27.78
2019-04-28T15:37:43.889Z,27.73
2019-04-28T15:38:49.122Z,27.51
2019-04-28T15:39:53.812Z,27.80
2019-04-28T15:40:59.091Z,26.42
2019-04-28T15:42:03.784Z,28.16
2019-04-28T15:43:08.754Z,27.28
2019-04-28T15:44:13.724Z,27.93
2019-04-28T15:45:18.764Z,27.67
2019-04-28T15:46:23.978Z,26.46
2019-04-28T15:47:28.953Z,27.07
2019-04-28T15:48:33.386Z,26.94
2019-04-28T15:49:38.386Z,26.66
2019-04-28T15:50:43.431Z,27.98
2019-04-28T15:51:47.880Z,28.05
2019-04-28T15:52:52.859Z,27.28
2019-04-28T15:53:57.556Z,28.02
2019-04-28T15:55:02.997Z,28.41
2019-04-28T15:56:20.112Z,28.42
2019-04-28T15:57:25.104Z,28.48
2019-04-28T15:58:30.995Z,28.13
2019-04-28T15:59:35.716Z,28.90
2019-04-28T16:00:40.977Z,28.88
2019-04-28T16:01:45.873Z,28.06
2019-04-28T16:02:50.407Z,28.49
2019-04-28T16:03:55.957Z,27.96
2019-04-28T16:05:00.928Z,27.22
2019-04-28T16:06:05.899Z,26.86
2019-04-28T16:07:23.994Z,27.14
2019-04-28T16:08:17.330Z,27.80
2019-04-28T16:09:22.454Z,27.40
2019-04-28T16:10:27.196Z,28.17
2019-04-28T16:11:32.784Z,28.14
2019-04-28T16:12:37.814Z,27.94
2019-04-28T16:13:43.456Z,27.19
2019-04-28T16:14:48.139Z,27.16
2019-04-28T16:15:53.137Z,28.16
2019-04-28T16:16:57.831Z,28.45
2019-04-28T16:18:03.092Z,27.91
2019-04-28T16:19:08.087Z,27.67
2019-04-28T16:20:12.985Z,27.41
2019-04-28T16:21:17.784Z,27.53
2019-04-28T16:22:22.597Z,27.45
2019-04-28T16:23:27.332Z,27.48
2019-04-28T16:24:32.326Z,28.29
2019-04-28T16:25:37.478Z,27.91
2019-04-28T16:26:42.475Z,27.62
2019-04-28T16:27:47.491Z,27.92
2019-04-28T16:28:52.269Z,26.35
2019-04-28T16:29:56.757Z,27.22
2019-04-28T16:31:01.862Z,27.34
2019-04-28T16:32:09.694Z,27.25
2019-04-28T16:33:13.540Z,27.65
2019-04-28T16:34:18.821Z,27.37
2019-04-28T16:35:23.270Z,26.95
2019-04-28T16:36:28.640Z,27.11
2019-04-28T16:37:39.057Z,27.99
2019-04-28T16:38:40.939Z,25.77
2019-04-28T16:39:45.943Z,27.34
2019-04-28T16:40:52.818Z,27.24
2019-04-28T16:42:00.357Z,27.32
2019-04-28T16:43:05.060Z,27.62
2019-04-28T16:44:13.343Z,27.45
2019-04-28T16:45:21.805Z,27.62
2019-04-28T16:46:27.645Z,27.67
2019-04-28T16:47:33.211Z,27.67
2019-04-28T16:48:38.172Z,27.37
2019-04-28T16:49:43.131Z,27.84
2019-04-28T16:50:48.388Z,27.54
2019-04-28T16:51:53.100Z,27.53
2019-04-28T16:52:57.592Z,27.80
2019-04-28T16:54:02.570Z,27.64
2019-04-28T16:55:14.852Z,27.81
2019-04-28T16:56:41.282Z,27.73
2019-04-28T16:57:58.341Z,28.06
2019-04-28T16:59:25.137Z,27.41
2019-04-28T17:00:59.435Z,26.25
2019-04-28T17:02:14.362Z,26.05
2019-04-28T17:03:19.366Z,26.96
2019-04-28T17:04:24.420Z,26.51
2019-04-28T17:05:29.130Z,27.03
2019-04-28T17:06:33.865Z,27.21
2019-04-28T17:07:51.546Z,27.71
2019-04-28T17:08:46.183Z,27.88
2019-04-28T17:09:51.485Z,27.71
2019-04-28T17:10:56.458Z,27.32
2019-04-28T17:12:01.410Z,26.91
2019-04-28T17:13:06.208Z,25.79
2019-04-28T17:14:10.901Z,26.54
2019-04-28T17:15:15.657Z,26.57
2019-04-28T17:16:20.389Z,27.46
2019-04-28T17:17:25.396Z,27.02
2019-04-28T17:18:30.181Z,26.86
2019-04-28T17:19:35.691Z,25.80
2019-04-28T17:20:40.652Z,26.42
2019-04-28T17:21:45.350Z,27.28
2019-04-28T17:22:50.142Z,27.57
2019-04-28T17:23:55.391Z,27.48
2019-04-28T17:24:59.867Z,27.25
2019-04-28T17:26:05.129Z,25.76
2019-04-28T17:27:10.091Z,26.73
2019-04-28T17:28:15.173Z,27.16
2019-04-28T17:29:20.478Z,27.40
2019-04-28T17:30:25.517Z,27.72
2019-04-28T17:31:30.224Z,26.30
2019-04-28T17:32:35.247Z,26.83
2019-04-28T17:33:40.280Z,26.85
2019-04-28T17:34:45.356Z,26.53
2019-04-28T17:35:50.072Z,26.93
2019-04-28T17:36:55.051Z,27.27
2019-04-28T17:38:06.349Z,26.77
2019-04-28T17:39:13.180Z,26.98
2019-04-28T17:40:18.641Z,26.07
2019-04-28T17:41:24.169Z,26.64
2019-04-28T17:42:29.137Z,26.35
2019-04-28T17:43:34.084Z,26.20
2019-04-28T17:44:39.384Z,26.93
2019-04-28T17:45:44.681Z,25.90
2019-04-28T17:46:49.664Z,26.63
2019-04-28T17:47:56.058Z,26.98
2019-04-28T17:49:01.134Z,26.92
2019-04-28T17:50:06.154Z,27.03
2019-04-28T17:51:10.825Z,27.35
2019-04-28T17:52:15.924Z,26.83
2019-04-28T17:53:20.626Z,26.70
2019-04-28T17:54:25.662Z,27.24
2019-04-28T17:55:30.670Z,27.30
2019-04-28T17:56:35.741Z,27.52
2019-04-28T17:57:41.365Z,27.22
2019-04-28T17:58:46.404Z,26.20
2019-04-28T17:59:53.447Z,26.94
2019-04-28T18:01:20.302Z,27.05
2019-04-28T18:02:51.228Z,26.77
2019-04-28T18:04:20.951Z,27.02
2019-04-28T18:05:36.249Z,26.75
2019-04-28T18:06:42.522Z,26.95
2019-04-28T18:07:48.043Z,26.88
2019-04-28T18:08:53.032Z,26.99
2019-04-28T18:09:58.586Z,26.80
2019-04-28T18:11:03.590Z,26.71
2019-04-28T18:12:08.560Z,26.73
2019-04-28T18:13:13.835Z,26.77
2019-04-28T18:14:18.527Z,26.96
2019-04-28T18:15:41.064Z,26.54
2019-04-28T18:17:06.923Z,26.47
2019-04-28T18:18:19.812Z,26.55
2019-04-28T18:19:25.472Z,26.53
2019-04-28T18:20:30.717Z,26.36
2019-04-28T18:21:35.491Z,26.05
2019-04-28T18:22:40.614Z,26.26
2019-04-28T18:23:45.105Z,26.11
2019-04-28T18:24:50.375Z,26.44
2019-04-28T18:25:55.140Z,25.68
2019-04-28T18:27:00.482Z,26.26
2019-04-28T18:28:05.165Z,25.35
2019-04-28T18:29:10.487Z,26.08
2019-04-28T18:30:17.004Z,26.41
2019-04-28T18:31:46.522Z,25.12
2019-04-28T18:33:09.914Z,25.51
2019-04-28T18:34:33.299Z,25.12
2019-04-28T18:35:57.752Z,24.88
2019-04-28T18:37:42.714Z,25.47
2019-04-28T18:39:02.773Z,24.63
2019-04-28T18:40:25.632Z,24.99
2019-04-28T18:41:48.066Z,25.62
2019-04-28T18:43:02.502Z,25.76
2019-04-28T18:44:14.903Z,25.65
2019-04-28T18:45:19.761Z,25.17
2019-04-28T18:46:28.192Z,25.73
2019-04-28T18:47:32.926Z,25.62
2019-04-28T18:48:37.914Z,25.78
2019-04-28T18:49:43.159Z,25.60
2019-04-28T18:50:47.838Z,25.95
2019-04-28T18:51:52.995Z,25.76
2019-04-28T18:52:57.484Z,25.69
2019-04-28T18:54:02.597Z,25.41
2019-04-28T18:55:07.564Z,25.32
2019-04-28T18:56:12.795Z,25.62
2019-04-28T18:57:17.761Z,25.36
2019-04-28T18:58:22.561Z,25.51
2019-04-28T18:59:27.846Z,25.53
2019-04-28T19:00:34.543Z,25.25
2019-04-28T19:01:51.221Z,25.71
2019-04-28T19:02:58.935Z,25.66
2019-04-28T19:04:03.926Z,25.57
2019-04-28T19:05:10.504Z,25.53
2019-04-28T19:06:15.527Z,25.47
2019-04-28T19:07:32.940Z,25.52
2019-04-28T19:08:49.206Z,25.50
2019-04-28T19:10:18.487Z,25.43
2019-04-28T19:11:43.830Z,25.54
2019-04-28T19:13:07.708Z,25.60
2019-04-28T19:14:20.080Z,25.44
2019-04-28T19:15:50.227Z,25.55
2019-04-28T19:17:04.324Z,25.33
2019-04-28T19:18:13.087Z,25.03
2019-04-28T19:19:18.689Z,24.82
2019-04-28T19:20:23.421Z,25.09
2019-04-28T19:21:28.366Z,25.44
2019-04-28T19:22:35.898Z,25.47
2019-04-28T19:23:41.315Z,25.41
2019-04-28T19:24:46.290Z,25.34
2019-04-28T19:25:51.153Z,25.63
2019-04-28T19:26:55.836Z,25.63
2019-04-28T19:28:00.786Z,25.64
2019-04-28T19:29:05.463Z,25.76
2019-04-28T19:30:10.157Z,25.65
2019-04-28T19:31:15.386Z,25.75
2019-04-28T19:32:20.119Z,25.51
2019-04-28T19:33:25.460Z,25.67
2019-04-28T19:34:30.394Z,25.47
2019-04-28T19:35:35.359Z,25.43
2019-04-28T19:36:40.916Z,25.35
2019-04-28T19:37:45.903Z,25.17
2019-04-28T19:39:02.497Z,25.43
2019-04-28T19:39:57.625Z,25.36
2019-04-28T19:41:03.232Z,25.31
2019-04-28T19:42:08.166Z,25.41
2019-04-28T19:43:13.168Z,25.33
2019-04-28T19:44:18.124Z,25.13
2019-04-28T19:45:22.871Z,25.25
2019-04-28T19:46:27.846Z,25.48
2019-04-28T19:47:33.172Z,25.88
2019-04-28T19:48:38.196Z,25.69
2019-04-28T19:49:43.239Z,25.74
2019-04-28T19:50:48.245Z,25.65
2019-04-28T19:51:53.511Z,25.49
2019-04-28T19:52:58.299Z,25.65
2019-04-28T19:54:03.003Z,25.42
2019-04-28T19:55:26.988Z,25.31
2019-04-28T19:56:52.825Z,25.17
2019-04-28T19:58:10.208Z,25.27
2019-04-28T19:59:19.314Z,25.40
2019-04-28T20:00:27.366Z,25.48
2019-04-28T20:01:32.339Z,25.51
2019-04-28T20:02:37.008Z,25.46
2019-04-28T20:03:42.041Z,25.36
2019-04-28T20:04:46.733Z,25.04
2019-04-28T20:05:51.969Z,25.03
2019-04-28T20:06:56.963Z,24.94
2019-04-28T20:08:02.225Z,25.18
2019-04-28T20:09:07.557Z,25.31
2019-04-28T20:10:12.548Z,25.08
2019-04-28T20:11:17.219Z,25.15
2019-04-28T20:12:22.495Z,25.14
2019-04-28T20:13:27.480Z,24.70
2019-04-28T20:14:32.484Z,24.78
2019-04-28T20:15:37.752Z,24.86
2019-04-28T20:16:42.716Z,24.90
2019-04-28T20:17:47.431Z,24.81
2019-04-28T20:18:52.370Z,24.29
2019-04-28T20:19:57.151Z,24.87
2019-04-28T20:21:01.809Z,24.60
2019-04-28T20:22:06.492Z,24.42
2019-04-28T20:23:11.740Z,24.68
2019-04-28T20:24:19.433Z,24.74
2019-04-28T20:25:23.331Z,24.51
2019-04-28T20:26:28.995Z,24.55
2019-04-28T20:27:33.672Z,24.61
2019-04-28T20:28:38.351Z,24.75
2019-04-28T20:29:43.044Z,24.79
2019-04-28T20:30:48.016Z,24.78
2019-04-28T20:31:53.076Z,24.84
2019-04-28T20:33:06.902Z,25.11
2019-04-28T20:34:04.238Z,25.10
2019-04-28T20:35:08.936Z,25.14
2019-04-28T20:36:20.144Z,25.07
2019-04-28T20:37:47.051Z,25.19
2019-04-28T20:38:54.796Z,25.33
2019-04-28T20:40:03.699Z,25.68
2019-04-28T20:41:14.217Z,25.53
2019-04-28T20:42:50.524Z,25.08
2019-04-28T20:43:56.318Z,25.19
2019-04-28T20:45:01.527Z,25.20
2019-04-28T20:46:06.208Z,25.33
2019-04-28T20:47:11.484Z,25.19
2019-04-28T20:48:16.553Z,25.11
2019-04-28T20:49:21.249Z,25.12
2019-04-28T20:50:25.758Z,25.28
2019-04-28T20:51:30.746Z,24.91
2019-04-28T20:52:36.259Z,24.91
2019-04-28T20:53:40.994Z,25.00
2019-04-28T20:54:46.241Z,24.94
2019-04-28T20:55:51.809Z,25.23
2019-04-28T20:56:56.554Z,24.65
2019-04-28T20:58:01.908Z,24.71
2019-04-28T20:59:06.609Z,24.96
2019-04-28T21:00:11.295Z,25.18
2019-04-28T21:01:16.347Z,24.75
2019-04-28T21:02:21.044Z,24.32
2019-04-28T21:03:26.579Z,24.61
2019-04-28T21:04:31.552Z,24.56
2019-04-28T21:05:36.797Z,24.51
2019-04-28T21:06:42.092Z,24.86
2019-04-28T21:07:47.064Z,24.38
2019-04-28T21:08:51.808Z,24.00
2019-04-28T21:09:57.066Z,24.71
2019-04-28T21:11:02.042Z,24.29
2019-04-28T21:12:06.723Z,24.09
2019-04-28T21:13:11.161Z,24.31
2019-04-28T21:14:15.854Z,24.28
2019-04-28T21:15:20.316Z,24.73
2019-04-28T21:16:25.558Z,24.67
2019-04-28T21:17:30.249Z,24.70
2019-04-28T21:18:35.233Z,24.84
2019-04-28T21:19:40.592Z,24.92
2019-04-28T21:20:45.594Z,24.86
2019-04-28T21:21:50.255Z,25.06
2019-04-28T21:22:55.231Z,24.93
2019-04-28T21:24:00.469Z,24.97
2019-04-28T21:25:05.830Z,25.03
2019-04-28T21:26:11.350Z,24.90
2019-04-28T21:27:16.076Z,24.85
2019-04-28T21:28:21.362Z,24.40
2019-04-28T21:29:26.741Z,24.68
2019-04-28T21:30:31.734Z,24.43
2019-04-28T21:31:36.980Z,24.49
2019-04-28T21:32:41.655Z,24.12
2019-04-28T21:33:46.746Z,24.51
2019-04-28T21:34:51.709Z,24.39
2019-04-28T21:35:56.721Z,24.60
2019-04-28T21:37:01.784Z,24.68
2019-04-28T21:38:06.521Z,24.46
2019-04-28T21:39:11.559Z,24.48
2019-04-28T21:40:17.983Z,24.17
2019-04-28T21:41:23.333Z,24.01
2019-04-28T21:42:30.544Z,23.89
2019-04-28T21:43:42.169Z,23.68
2019-04-28T21:44:58.782Z,23.68
2019-04-28T21:46:12.844Z,23.85
2019-04-28T21:47:23.963Z,23.96
2019-04-28T21:48:40.886Z,23.74
2019-04-28T21:49:45.626Z,23.58
2019-04-28T21:50:50.429Z,23.94
2019-04-28T21:51:55.387Z,24.33
2019-04-28T21:53:00.439Z,24.28
2019-04-28T21:54:04.921Z,24.37
2019-04-28T21:55:09.994Z,24.34
2019-04-28T21:56:15.282Z,24.66
2019-04-28T21:57:20.323Z,24.48
2019-04-28T21:58:33.048Z,24.52
2019-04-28T21:59:32.073Z,24.38
2019-04-28T22:00:48.016Z,24.23
2019-04-28T22:01:53.246Z,24.11
2019-04-28T22:02:57.918Z,24.24
2019-04-28T22:04:03.026Z,24.27
2019-04-28T22:05:07.720Z,24.13
2019-04-28T22:06:12.805Z,23.75
2019-04-28T22:07:17.668Z,23.72
2019-04-28T22:09:25.807Z,24.09
2019-04-28T22:10:30.518Z,23.83
2019-04-28T22:11:35.659Z,23.77
2019-04-28T22:12:40.669Z,23.26
2019-04-28T22:13:45.391Z,23.60
2019-04-28T22:14:50.633Z,23.26
2019-04-28T22:15:55.595Z,23.58
2019-04-28T22:17:00.314Z,23.76
2019-04-28T22:18:05.772Z,23.60
2019-04-28T22:19:10.739Z,23.91
2019-04-28T22:20:15.431Z,23.54
2019-04-28T22:21:20.454Z,23.65
2019-04-28T22:22:25.822Z,23.84
2019-04-28T22:23:36.876Z,23.88
2019-04-28T22:25:02.896Z,23.38
2019-04-28T22:26:09.580Z,23.74
2019-04-28T22:27:16.905Z,23.57
2019-04-28T22:28:22.504Z,23.68
2019-04-28T22:29:28.079Z,23.82
2019-04-28T22:30:33.076Z,23.92
2019-04-28T22:31:38.403Z,23.62
2019-04-28T22:32:43.683Z,23.54
2019-04-28T22:33:48.696Z,23.82
2019-04-28T22:34:54.148Z,23.50
2019-04-28T22:35:58.902Z,23.75
2019-04-28T22:37:03.626Z,23.72
2019-04-28T22:38:08.364Z,23.80
2019-04-28T22:39:13.433Z,23.93
2019-04-28T22:40:18.537Z,24.30
2019-04-28T22:41:24.095Z,24.07
2019-04-28T22:42:29.071Z,24.17
2019-04-28T22:43:34.119Z,24.19
2019-04-28T22:44:39.656Z,23.94
2019-04-28T22:46:48.850Z,24.02
2019-04-28T22:47:53.848Z,24.13
2019-04-28T22:49:00.804Z,24.08
2019-04-28T22:50:07.248Z,24.09
2019-04-28T22:51:12.442Z,24.04
2019-04-28T22:52:17.688Z,23.99
2019-04-28T22:53:26.807Z,24.06
2019-04-28T22:54:41.158Z,23.78
2019-04-28T22:55:52.250Z,23.67
2019-04-28T22:57:04.443Z,24.06
2019-04-28T22:58:24.730Z,23.93
2019-04-28T22:59:33.078Z,23.77
2019-04-28T23:00:48.721Z,23.81
2019-04-28T23:02:00.394Z,23.72
2019-04-28T23:03:05.159Z,23.87
2019-04-28T23:04:41.524Z,23.63
2019-04-28T23:05:46.798Z,23.70
2019-04-28T23:06:51.414Z,23.86
2019-04-28T23:07:56.815Z,23.95